Time;durP1;ratioP1;P1;durP2;ratioP2;P2;SDS_P1;SDS_P2;PMS_P1;PMS_P2;Temp;Humidity;BMP_temperature;BMP_pressure;BME280_temperature;BME280_humidity;BME280_pressure;Samples;Min_cycle;Max_cycle;Signal;HPM_P1;HPM_P2
2022/06/20 00:01:06;;;;;;;3.17;1.87;;;17.40;99.90;;;;;;4977975;28;20279;-62
2022/06/20 00:03:37;;;;;;;3.37;2.40;;;17.30;99.90;;;;;;4974288;28;20206;-62
2022/06/20 00:06:02;;;;;;;7.83;2.43;;;17.10;99.90;;;;;;4974840;28;20277;-62
2022/06/20 00:08:28;;;;;;;5.20;1.90;;;17.00;99.90;;;;;;4975924;28;20305;-62
2022/06/20 00:10:54;;;;;;;5.50;2.07;;;16.90;99.90;;;;;;4972742;28;20240;-62
2022/06/20 00:13:27;;;;;;;4.63;2.07;;;16.80;99.90;;;;;;4971587;28;20742;-61
2022/06/20 00:15:56;;;;;;;6.03;2.17;;;16.80;99.90;;;;;;4971261;28;20210;-61
2022/06/20 00:18:21;;;;;;;4.73;2.23;;;16.70;99.90;;;;;;4971186;28;20222;-58
2022/06/20 00:20:47;;;;;;;2.80;1.97;;;16.60;99.90;;;;;;4975207;28;20193;-75
2022/06/20 00:23:13;;;;;;;5.33;2.10;;;16.60;99.90;;;;;;4964638;28;20252;-59
2022/06/20 00:25:39;;;;;;;3.20;1.73;;;16.60;99.90;;;;;;4962755;28;20796;-57
2022/06/20 00:28:05;;;;;;;6.57;2.13;;;16.60;99.90;;;;;;4957584;28;20673;-58
2022/06/20 00:30:31;;;;;;;5.47;2.37;;;16.50;99.90;;;;;;4964751;28;20228;-58
2022/06/20 00:32:56;;;;;;;5.50;2.63;;;16.40;99.90;;;;;;4964016;28;20214;-58
2022/06/20 00:35:22;;;;;;;3.77;2.60;;;16.40;99.90;;;;;;4965656;28;20576;-59
2022/06/20 00:37:48;;;;;;;4.20;2.87;;;16.30;99.90;;;;;;4965130;28;20231;-59
2022/06/20 00:40:35;;;;;;;4.63;2.73;;;16.30;99.90;;;;;;4966747;28;20193;-59
2022/06/20 00:43:01;;;;;;;3.80;2.37;;;16.30;99.90;;;;;;4965958;28;20555;-59
2022/06/20 00:45:32;;;;;;;3.77;2.63;;;16.30;99.90;;;;;;4967807;28;20603;-60
2022/06/20 00:48:04;;;;;;;4.93;2.30;;;16.30;99.90;;;;;;4966120;28;20221;-59
2022/06/20 00:50:32;;;;;;;5.80;3.03;;;16.30;99.90;;;;;;4953665;28;20200;-59
2022/06/20 00:53:08;;;;;;;3.17;2.30;;;16.20;99.90;;;;;;4965671;28;20302;-59
2022/06/20 00:55:35;;;;;;;2.83;2.23;;;16.20;99.90;;;;;;4961701;28;20220;-58
2022/06/20 00:58:28;;;;;;;8.90;3.00;;;16.30;99.90;;;;;;4965720;28;20210;-58
2022/06/20 01:00:54;;;;;;;5.37;2.20;;;16.30;99.90;;;;;;4953256;28;20218;-58
2022/06/20 01:03:23;;;;;;;5.73;2.13;;;16.40;99.90;;;;;;4967419;28;20205;-58
2022/06/20 01:06:02;;;;;;;4.20;2.33;;;16.40;99.90;;;;;;4965155;28;20194;-58
2022/06/20 01:08:33;;;;;;;6.93;2.10;;;16.40;99.90;;;;;;4967459;28;20194;-58
2022/06/20 01:11:22;;;;;;;4.87;2.13;;;16.50;99.90;;;;;;4949018;28;20198;-59
2022/06/20 01:13:49;;;;;;;3.77;2.17;;;16.40;99.90;;;;;;4968583;28;20228;-59
2022/06/20 01:16:14;;;;;;;5.67;2.37;;;16.40;99.90;;;;;;4951091;28;20916;-59
2022/06/20 01:18:43;;;;;;;7.80;2.30;;;16.40;99.90;;;;;;4966973;28;20222;-59
2022/06/20 01:21:14;;;;;;;7.00;2.30;;;16.40;99.90;;;;;;4965124;28;20199;-60
2022/06/20 01:24:26;;;;;;;6.17;3.00;;;16.30;99.90;;;;;;4967335;28;20194;-59
2022/06/20 01:27:23;;;;;;;4.37;2.60;;;16.20;99.90;;;;;;4955399;28;20193;-59
2022/06/20 01:29:48;;;;;;;6.20;3.23;;;16.20;99.90;;;;;;4960419;28;20189;-59
2022/06/20 01:32:14;;;;;;;4.80;2.33;;;16.20;99.90;;;;;;4965226;28;20217;-59
2022/06/20 01:34:40;;;;;;;4.90;2.63;;;16.10;99.90;;;;;;4966897;28;20201;-59
2022/06/20 01:37:29;;;;;;;4.63;2.70;;;16.10;99.90;;;;;;4965161;28;20215;-59
2022/06/20 01:40:03;;;;;;;8.90;3.50;;;16.10;99.90;;;;;;4960735;28;20818;-59
2022/06/20 01:42:30;;;;;;;6.97;3.63;;;16.00;99.90;;;;;;4960119;28;20232;-59
2022/06/20 01:45:02;;;;;;;6.83;3.53;;;16.00;99.90;;;;;;4966952;28;20204;-59
2022/06/20 01:47:28;;;;;;;7.03;3.70;;;15.90;99.90;;;;;;4959888;28;20201;-59
2022/06/20 01:50:00;;;;;;;10.20;4.50;;;15.90;99.90;;;;;;4966657;28;20526;-59
2022/06/20 01:52:34;;;;;;;14.60;4.60;;;15.80;99.90;;;;;;4959609;28;20201;-59
2022/06/20 01:55:14;;;;;;;6.20;4.17;;;15.90;99.90;;;;;;4947788;29;20190;-59
2022/06/20 01:57:42;;;;;;;8.20;3.73;;;15.80;99.90;;;;;;4961272;28;20214;-59
2022/06/20 02:00:22;;;;;;;5.67;3.17;;;15.80;99.90;;;;;;4964949;28;20251;-59
2022/06/20 02:02:52;;;;;;;6.07;2.70;;;15.80;99.90;;;;;;4961752;28;20287;-59
2022/06/20 02:05:21;;;;;;;7.13;3.43;;;15.80;99.90;;;;;;4965495;28;20201;-59
2022/06/20 02:07:47;;;;;;;5.20;3.40;;;15.80;99.90;;;;;;4964435;28;20308;-59
2022/06/20 02:10:19;;;;;;;6.80;3.07;;;15.90;99.90;;;;;;4967016;28;20289;-59
2022/06/20 02:12:46;;;;;;;4.73;3.30;;;15.90;99.90;;;;;;4961738;28;20206;-59
2022/06/20 02:15:19;;;;;;;5.53;2.70;;;15.80;99.90;;;;;;4966446;28;20220;-59
2022/06/20 02:17:49;;;;;;;3.67;3.00;;;15.70;99.90;;;;;;4961724;28;20225;-59
2022/06/20 02:20:19;;;;;;;4.03;2.67;;;15.80;99.90;;;;;;4966334;28;20462;-60
2022/06/20 02:22:46;;;;;;;7.33;3.07;;;15.80;99.90;;;;;;4961947;28;20237;-59
2022/06/20 02:25:18;;;;;;;6.43;2.80;;;15.80;99.90;;;;;;4966660;28;20197;-59
2022/06/20 02:27:51;;;;;;;5.80;2.70;;;15.80;99.90;;;;;;4961376;28;20198;-58
2022/06/20 02:30:17;;;;;;;8.67;3.30;;;15.80;99.90;;;;;;4966133;28;20206;-59
2022/06/20 02:33:09;;;;;;;3.73;2.87;;;15.90;99.90;;;;;;4959965;28;20201;-59
2022/06/20 02:35:35;;;;;;;6.73;2.70;;;15.90;99.90;;;;;;4961120;28;20212;-60
2022/06/20 02:38:01;;;;;;;6.47;2.80;;;15.90;99.90;;;;;;4963825;28;20221;-60
2022/06/20 02:40:28;;;;;;;7.87;3.33;;;15.90;99.90;;;;;;4965973;28;20261;-60
2022/06/20 02:43:01;;;;;;;5.93;3.60;;;16.00;99.90;;;;;;4964364;28;20206;-60
2022/06/20 02:45:28;;;;;;;8.53;3.87;;;15.90;99.90;;;;;;4963563;28;20190;-60
2022/06/20 02:47:58;;;;;;;4.23;2.93;;;15.90;99.90;;;;;;4964093;28;20217;-60
2022/06/20 02:50:30;;;;;;;4.93;2.73;;;15.90;99.90;;;;;;4946995;29;20194;-60
2022/06/20 02:53:02;;;;;;;6.10;3.00;;;15.90;99.90;;;;;;4961763;28;20298;-60
2022/06/20 02:55:30;;;;;;;5.10;3.53;;;15.90;99.90;;;;;;4946848;29;20198;-60
2022/06/20 02:57:58;;;;;;;7.07;3.60;;;15.90;99.90;;;;;;4963658;28;20642;-60
2022/06/20 03:00:35;;;;;;;9.43;3.43;;;15.90;99.90;;;;;;4965430;28;20226;-60
2022/06/20 03:03:09;;;;;;;5.30;3.23;;;15.90;99.90;;;;;;4964131;28;20268;-60
2022/06/20 03:05:35;;;;;;;5.30;3.03;;;15.90;99.90;;;;;;4962449;28;20185;-59
2022/06/20 03:08:01;;;;;;;4.73;3.43;;;15.80;99.90;;;;;;4963991;28;20202;-59
2022/06/20 03:10:34;;;;;;;6.57;3.17;;;15.80;99.90;;;;;;4963422;28;20748;-59
2022/06/20 03:13:00;;;;;;;5.37;2.73;;;15.80;99.90;;;;;;4956048;28;20205;-60
2022/06/20 03:15:26;;;;;;;7.10;2.97;;;15.80;99.90;;;;;;4966482;28;20284;-60
2022/06/20 03:17:53;;;;;;;7.17;3.53;;;15.80;99.90;;;;;;4967211;28;20304;-59
2022/06/20 03:20:21;;;;;;;5.27;3.33;;;15.80;99.90;;;;;;4969140;28;20194;-59
2022/06/20 03:22:52;;;;;;;8.93;3.30;;;15.80;99.90;;;;;;4967192;28;20226;-60
2022/06/20 03:25:20;;;;;;;6.53;3.53;;;15.80;99.90;;;;;;4954178;28;20194;-60
2022/06/20 03:27:46;;;;;;;4.73;3.13;;;15.80;99.90;;;;;;4967077;28;20220;-60
2022/06/20 03:30:18;;;;;;;7.27;3.07;;;15.80;99.90;;;;;;4969333;28;20197;-59
2022/06/20 03:32:43;;;;;;;7.07;2.90;;;15.90;99.90;;;;;;4967055;28;20206;-60
2022/06/20 03:35:09;;;;;;;5.67;3.77;;;15.90;99.90;;;;;;4968798;28;20260;-59
2022/06/20 03:37:36;;;;;;;6.73;3.00;;;15.90;99.90;;;;;;4966542;28;20212;-60
2022/06/20 03:40:03;;;;;;;6.43;3.43;;;15.90;99.90;;;;;;4969055;28;20715;-60
2022/06/20 03:42:29;;;;;;;8.13;3.10;;;15.90;99.90;;;;;;4966862;28;20206;-60
2022/06/20 03:44:57;;;;;;;5.50;3.27;;;15.90;99.90;;;;;;4968991;28;20529;-60
2022/06/20 03:47:32;;;;;;;6.77;3.40;;;15.90;99.90;;;;;;4966884;28;20209;-60
2022/06/20 03:50:03;;;;;;;8.37;3.47;;;16.00;99.90;;;;;;4968925;28;20224;-60
2022/06/20 03:52:47;;;;;;;7.50;3.60;;;16.00;99.90;;;;;;4966262;28;20736;-60
2022/06/20 03:55:22;;;;;;;7.00;3.57;;;16.00;99.90;;;;;;4968344;28;20210;-60
2022/06/20 03:57:55;;;;;;;6.67;3.73;;;16.00;99.90;;;;;;4957092;28;20248;-59
2022/06/20 04:00:35;;;;;;;6.63;3.97;;;16.10;99.90;;;;;;4953054;28;20231;-60
2022/06/20 04:03:23;;;;;;;6.53;4.53;;;16.20;99.90;;;;;;4966909;28;20205;-59
2022/06/20 04:05:57;;;;;;;12.67;4.77;;;16.20;99.90;;;;;;4968221;28;20268;-59
2022/06/20 04:11:32;;;;;;;7.47;3.53;;;16.20;99.90;;;;;;4961185;28;20582;-59
2022/06/20 04:14:12;;;;;;;3.57;2.90;;;16.30;99.90;;;;;;4966631;28;20210;-59
2022/06/20 04:18:27;;;;;;;5.47;3.33;;;16.40;99.90;;;;;;4952362;28;20202;-59
2022/06/20 04:19:51;;;;;;;8.37;3.63;;;16.40;99.90;;;;;;4952183;28;20344;-59
2022/06/20 04:22:23;;;;;;;8.40;3.73;;;16.40;99.90;;;;;;4966213;28;20284;-59
2022/06/20 04:25:16;;;;;;;6.67;4.13;;;16.50;99.90;;;;;;4968336;28;20190;-59
2022/06/20 04:27:49;;;;;;;7.13;4.80;;;16.60;99.90;;;;;;4955551;28;20213;-59
2022/06/20 04:30:25;;;;;;;8.23;5.63;;;16.80;99.90;;;;;;4952521;28;20194;-59
2022/06/20 04:32:56;;;;;;;6.80;4.73;;;17.00;99.90;;;;;;4958915;28;20352;-59
2022/06/20 04:35:38;;;;;;;7.37;4.57;;;17.10;99.90;;;;;;4949210;28;20257;-59
2022/06/20 04:38:23;;;;;;;5.10;2.70;;;17.30;99.90;;;;;;4965993;28;20213;-60
2022/06/20 04:41:02;;;;;;;4.63;2.67;;;17.40;99.90;;;;;;4948624;29;20584;-60
2022/06/20 04:43:51;;;;;;;5.33;3.03;;;17.40;99.90;;;;;;4961802;28;20211;-60
2022/06/20 04:46:29;;;;;;;6.90;3.07;;;17.30;99.90;;;;;;4967619;28;20193;-60
2022/06/20 04:48:56;;;;;;;3.40;2.43;;;17.20;99.90;;;;;;4964953;28;20693;-60
2022/06/20 04:51:32;;;;;;;3.43;2.43;;;17.20;99.90;;;;;;4967389;28;20195;-59
2022/06/20 04:53:58;;;;;;;3.57;2.63;;;17.00;99.90;;;;;;4966072;28;20289;-60
2022/06/20 04:56:27;;;;;;;5.17;2.93;;;16.90;99.90;;;;;;4967495;28;20201;-60
2022/06/20 04:59:02;;;;;;;6.13;2.93;;;16.80;99.90;;;;;;4965428;28;20221;-60
2022/06/20 05:01:31;;;;;;;3.40;3.13;;;16.70;99.90;;;;;;4959600;28;20711;-60
2022/06/20 05:04:07;;;;;;;3.73;2.73;;;16.60;99.90;;;;;;4965820;28;20205;-60
2022/06/20 05:06:36;;;;;;;8.17;3.50;;;16.50;99.90;;;;;;4948360;29;20885;-60
2022/06/20 05:09:25;;;;;;;9.37;3.63;;;16.40;99.90;;;;;;4948935;29;20257;-60
2022/06/20 05:11:58;;;;;;;4.13;3.77;;;16.30;99.90;;;;;;4962290;28;20638;-60
2022/06/20 05:14:30;;;;;;;5.27;3.73;;;16.30;99.90;;;;;;4966963;28;20190;-59
2022/06/20 05:16:56;;;;;;;5.23;3.93;;;16.30;99.90;;;;;;4955464;28;20202;-60
2022/06/20 05:19:28;;;;;;;10.47;4.47;;;16.20;99.90;;;;;;4971004;28;20579;-60
2022/06/20 05:21:58;;;;;;;9.50;4.73;;;16.20;99.90;;;;;;4958604;28;20293;-60
2022/06/20 05:24:30;;;;;;;8.67;4.93;;;16.10;99.90;;;;;;4967073;28;20199;-59
2022/06/20 05:26:56;;;;;;;8.10;4.10;;;16.00;99.90;;;;;;4948846;28;20197;-60
2022/06/20 05:29:30;;;;;;;7.47;4.43;;;15.80;99.90;;;;;;4967006;28;20672;-60
2022/06/20 05:32:02;;;;;;;8.50;4.70;;;15.60;99.90;;;;;;4949115;28;20208;-60
2022/06/20 05:34:35;;;;;;;7.20;3.90;;;15.50;99.90;;;;;;4967266;28;20772;-59
2022/06/20 05:37:05;;;;;;;7.07;4.20;;;15.40;99.90;;;;;;4956471;28;20263;-60
2022/06/20 05:39:39;;;;;;;10.83;5.87;;;15.20;99.90;;;;;;4961446;28;20220;-60
2022/06/20 05:42:09;;;;;;;8.60;5.27;;;15.10;99.90;;;;;;4967181;28;20246;-60
2022/06/20 05:44:35;;;;;;;7.43;5.00;;;15.00;99.90;;;;;;4964888;28;20193;-60
2022/06/20 05:47:05;;;;;;;9.27;6.97;;;15.00;99.90;;;;;;4967136;28;20177;-60
2022/06/20 05:49:36;;;;;;;9.40;5.50;;;15.00;99.90;;;;;;4963301;28;20292;-61
2022/06/20 05:52:04;;;;;;;10.73;5.43;;;14.90;99.90;;;;;;4966985;28;20173;-60
2022/06/20 05:54:36;;;;;;;10.73;5.93;;;14.90;99.90;;;;;;4964789;28;20216;-60
2022/06/20 05:57:08;;;;;;;12.50;7.77;;;14.80;99.90;;;;;;4966747;28;20241;-60
2022/06/20 05:59:42;;;;;;;7.37;5.80;;;14.80;99.90;;;;;;4951161;28;20213;-60
2022/06/20 06:02:37;;;;;;;14.10;7.27;;;14.80;99.90;;;;;;4966400;28;20862;-60
2022/06/20 06:05:20;;;;;;;9.87;6.63;;;14.80;99.90;;;;;;4965170;28;20385;-60
2022/06/20 06:07:59;;;;;;;9.03;6.60;;;14.70;99.90;;;;;;4947203;29;20253;-60
2022/06/20 06:10:36;;;;;;;16.03;7.70;;;14.80;99.90;;;;;;4955442;28;20240;-59
2022/06/20 06:13:14;;;;;;;17.33;8.13;;;14.80;99.90;;;;;;4957876;28;20253;-59
2022/06/20 06:18:43;;;;;;;14.10;7.23;;;14.80;99.90;;;;;;4966530;28;20702;-60
2022/06/20 06:21:09;;;;;;;15.60;9.03;;;14.80;99.90;;;;;;4961937;28;20205;-60
2022/06/20 06:23:34;;;;;;;12.33;7.97;;;14.80;99.90;;;;;;4966159;28;20209;-59
2022/06/20 06:26:00;;;;;;;9.43;7.53;;;14.90;99.90;;;;;;4964264;28;20292;-58
2022/06/20 06:28:27;;;;;;;10.10;8.63;;;14.90;99.90;;;;;;4966310;28;20669;-59
2022/06/20 06:30:58;;;;;;;9.33;8.00;;;14.90;99.90;;;;;;4964483;28;20206;-60
2022/06/20 06:33:33;;;;;;;13.03;8.80;;;14.90;99.90;;;;;;4948591;28;20202;-60
2022/06/20 06:36:09;;;;;;;9.30;7.23;;;15.00;99.90;;;;;;4945604;28;20297;-60
2022/06/20 06:38:41;;;;;;;9.37;7.33;;;15.10;99.90;;;;;;4966252;28;20722;-60
2022/06/20 06:41:14;;;;;;;9.23;6.77;;;15.10;99.90;;;;;;4961046;28;20220;-60
2022/06/20 06:43:44;;;;;;;7.07;6.27;;;15.20;99.90;;;;;;4953630;28;20193;-77
2022/06/20 06:46:25;;;;;;;10.43;8.40;;;15.40;99.90;;;;;;4963857;28;20230;-58
2022/06/20 06:48:57;;;;;;;12.53;6.43;;;15.50;99.90;;;;;;4964412;28;20244;-58
2022/06/20 06:51:33;;;;;;;6.47;5.70;;;15.70;99.90;;;;;;4947715;28;20320;-58
2022/06/20 06:54:12;;;;;;;8.83;6.00;;;15.80;99.90;;;;;;4955881;28;20224;-59
2022/06/20 06:56:44;;;;;;;8.27;6.17;;;16.00;99.90;;;;;;4969773;28;20200;-59
2022/06/20 06:59:45;;;;;;;8.10;6.07;;;16.10;99.90;;;;;;4952259;28;20224;-59
2022/06/20 07:02:18;;;;;;;8.03;5.40;;;16.30;99.90;;;;;;4960512;28;20222;-60
2022/06/20 07:05:05;;;;;;;8.87;5.63;;;16.50;99.90;;;;;;4963534;28;20296;-60
2022/06/20 07:07:58;;;;;;;7.27;5.67;;;16.70;99.90;;;;;;4969645;28;20224;-62
2022/06/20 07:10:31;;;;;;;6.83;5.20;;;16.80;99.90;;;;;;4965026;28;20201;-61
2022/06/20 07:13:11;;;;;;;6.47;5.70;;;16.70;99.90;;;;;;4969402;28;20186;-61
2022/06/20 07:15:37;;;;;;;7.87;5.23;;;16.70;99.90;;;;;;4967444;28;20217;-60
2022/06/20 07:18:19;;;;;;;6.20;5.70;;;16.60;99.90;;;;;;4968505;28;20255;-61
2022/06/20 07:20:45;;;;;;;9.57;5.43;;;16.50;99.90;;;;;;4964031;28;20201;-60
2022/06/20 07:23:17;;;;;;;9.80;5.67;;;16.50;99.90;;;;;;4971990;28;20280;-63
2022/06/20 07:25:48;;;;;;;9.77;6.13;;;16.50;99.90;;;;;;4957706;28;20206;-64
2022/06/20 07:28:23;;;;;;;7.87;6.00;;;16.30;99.90;;;;;;4957103;28;20921;-60
2022/06/20 07:31:15;;;;;;;21.53;13.50;;;16.30;99.90;;;;;;4961295;28;20197;-70
2022/06/20 07:33:53;;;;;;;6.17;5.57;;;16.30;99.90;;;;;;4956930;28;20194;-68
2022/06/20 07:36:27;;;;;;;5.80;5.30;;;16.40;99.90;;;;;;4967323;28;20216;-62
2022/06/20 07:39:12;;;;;;;9.00;5.70;;;16.30;99.90;;;;;;4958192;28;20265;-62
2022/06/20 07:41:43;;;;;;;10.07;6.10;;;16.40;99.90;;;;;;4968558;28;20223;-61
2022/06/20 07:44:20;;;;;;;11.23;6.43;;;16.40;99.90;;;;;;4947733;28;20194;-62
2022/06/20 07:46:56;;;;;;;7.00;5.60;;;16.40;99.90;;;;;;4960726;28;20656;-62
2022/06/20 07:49:35;;;;;;;6.67;5.50;;;16.40;99.90;;;;;;4966658;28;20775;-62
2022/06/20 07:52:08;;;;;;;10.07;5.83;;;16.40;99.90;;;;;;4968421;28;20255;-61
2022/06/20 07:54:39;;;;;;;6.67;5.00;;;16.40;99.90;;;;;;4951052;28;20212;-63
2022/06/20 07:57:12;;;;;;;5.83;5.30;;;16.40;99.90;;;;;;4968201;28;20356;-71
2022/06/20 07:59:44;;;;;;;10.23;6.03;;;16.40;99.90;;;;;;4951070;28;20228;-60
2022/06/20 08:02:32;;;;;;;9.03;5.77;;;16.40;99.90;;;;;;4962312;28;20226;-62
2022/06/20 08:05:00;;;;;;;5.23;4.50;;;16.30;99.90;;;;;;4964327;28;20206;-61
2022/06/20 08:07:47;;;;;;;8.70;4.53;;;16.40;99.90;;;;;;4966196;28;20536;-62
2022/06/20 08:10:32;;;;;;;6.90;5.17;;;16.30;99.90;;;;;;4959513;28;20293;-64
2022/06/20 08:13:00;;;;;;;7.97;5.33;;;16.30;99.90;;;;;;4962180;28;20244;-63
2022/06/20 08:15:36;;;;;;;8.20;5.40;;;16.30;99.90;;;;;;4965940;28;20256;-63
2022/06/20 08:18:02;;;;;;;6.60;5.10;;;16.40;99.90;;;;;;4947794;29;20228;-63
2022/06/20 08:20:31;;;;;;;6.40;5.20;;;16.40;99.90;;;;;;4965098;28;20205;-62
2022/06/20 08:23:04;;;;;;;5.63;5.13;;;16.60;99.90;;;;;;4967131;28;20656;-62
2022/06/20 08:25:35;;;;;;;8.97;6.03;;;16.80;99.90;;;;;;4960677;28;20213;-63
2022/06/20 08:28:08;;;;;;;6.07;5.03;;;17.00;99.90;;;;;;4948467;29;20246;-63
2022/06/20 08:30:52;;;;;;;7.17;5.80;;;17.20;99.90;;;;;;4958419;28;20300;-63
2022/06/20 08:33:43;;;;;;;6.33;5.83;;;17.50;99.90;;;;;;4953584;28;20195;-62
2022/06/20 08:36:28;;;;;;;5.80;5.27;;;17.70;99.90;;;;;;4967431;28;20185;-62
2022/06/20 08:39:09;;;;;;;6.10;5.50;;;17.70;99.90;;;;;;4952216;28;20785;-64
2022/06/20 08:42:16;;;;;;;7.20;5.67;;;17.80;99.90;;;;;;4966873;28;20222;-63
2022/06/20 08:45:06;;;;;;;7.23;5.47;;;17.90;99.90;;;;;;4959329;28;20207;-64
2022/06/20 08:48:18;;;;;;;5.13;4.63;;;17.70;99.90;;;;;;4950993;28;20195;-62
2022/06/20 08:51:08;;;;;;;6.97;5.10;;;17.40;99.90;;;;;;4974708;28;20638;-63
2022/06/20 08:53:58;;;;;;;7.20;4.37;;;17.10;99.90;;;;;;4972497;28;20207;-63
2022/06/20 08:56:39;;;;;;;5.63;4.60;;;16.90;99.90;;;;;;4974500;28;20321;-64
2022/06/20 08:59:25;;;;;;;6.93;5.53;;;16.80;99.90;;;;;;4971719;28;20429;-64
2022/06/20 09:02:19;;;;;;;5.03;4.60;;;16.80;99.90;;;;;;4975660;28;20259;-64
2022/06/20 09:04:53;;;;;;;5.13;4.60;;;16.70;99.90;;;;;;4967835;28;20286;-63
2022/06/20 09:07:29;;;;;;;7.20;5.10;;;16.60;99.90;;;;;;4975900;28;20752;-63
2022/06/20 09:10:16;;;;;;;6.97;5.47;;;16.60;99.90;;;;;;4979342;28;20209;-60
2022/06/20 09:13:00;;;;;;;5.77;5.17;;;16.60;99.90;;;;;;4971637;28;20212;-64
2022/06/20 09:15:50;;;;;;;7.53;6.27;;;16.60;99.90;;;;;;4964679;28;20273;-62
2022/06/20 09:18:43;;;;;;;10.93;6.37;;;16.50;99.90;;;;;;4977832;28;20561;-62
2022/06/20 09:21:26;;;;;;;8.03;6.43;;;16.50;99.90;;;;;;4966338;28;20747;-63
2022/06/20 09:24:42;;;;;;;8.30;5.87;;;16.50;99.90;;;;;;4952060;28;20193;-63
2022/06/20 09:27:15;;;;;;;5.63;5.13;;;16.50;99.90;;;;;;4944464;29;20206;-63
2022/06/20 09:29:40;;;;;;;6.93;5.80;;;16.60;99.90;;;;;;4970423;28;20739;-63
2022/06/20 09:32:16;;;;;;;10.03;5.67;;;16.60;99.90;;;;;;4955711;28;20300;-63
2022/06/20 09:35:23;;;;;;;9.30;6.33;;;16.70;99.90;;;;;;4964718;28;20221;-64
2022/06/20 09:38:19;;;;;;;6.77;5.53;;;16.70;99.90;;;;;;4947012;29;20194;-63
2022/06/20 09:41:03;;;;;;;6.23;4.83;;;16.60;99.90;;;;;;4958453;28;20181;-64
2022/06/20 09:44:30;;;;;;;6.97;4.97;;;16.70;99.90;;;;;;4950064;28;20696;-64
2022/06/20 09:47:20;;;;;;;5.20;4.27;;;16.70;99.90;;;;;;4924770;29;20191;-64
2022/06/20 09:50:08;;;;;;;5.33;4.53;;;16.60;99.90;;;;;;4922556;29;20702;-64
2022/06/20 09:53:05;;;;;;;5.40;4.87;;;16.60;99.90;;;;;;4954080;28;20205;-64
2022/06/20 09:55:58;;;;;;;4.87;4.20;;;16.50;99.90;;;;;;4966001;28;20276;-64
2022/06/20 09:58:41;;;;;;;8.23;5.07;;;16.50;99.90;;;;;;4967521;28;20743;-63
2022/06/20 10:01:23;;;;;;;6.00;5.00;;;16.50;99.90;;;;;;4974594;28;20291;-63
2022/06/20 10:04:07;;;;;;;12.43;7.13;;;16.50;99.90;;;;;;4950682;28;20236;-63
2022/06/20 10:06:55;;;;;;;10.00;6.17;;;16.50;99.90;;;;;;4971082;28;20181;-63
2022/06/20 10:09:35;;;;;;;7.93;5.13;;;16.50;99.90;;;;;;4964638;28;20209;-63
2022/06/20 10:12:43;;;;;;;11.03;6.20;;;16.40;99.90;;;;;;4945261;29;20205;-62
2022/06/20 10:15:24;;;;;;;9.37;7.07;;;16.30;99.90;;;;;;4964297;28;20714;-62
2022/06/20 10:18:21;;;;;;;7.27;5.23;;;16.30;99.90;;;;;;4949953;28;20189;-63
2022/06/20 10:21:04;;;;;;;9.93;5.07;;;16.30;99.90;;;;;;4965593;28;20198;-63
2022/06/20 10:23:50;;;;;;;6.90;4.77;;;16.20;99.90;;;;;;4961540;28;20204;-63
2022/06/20 10:26:30;;;;;;;4.63;4.23;;;16.20;99.90;;;;;;4970539;28;20817;-63
2022/06/20 10:29:17;;;;;;;7.50;5.40;;;16.20;99.90;;;;;;4957701;28;20304;-63
2022/06/20 10:32:10;;;;;;;6.70;4.97;;;16.20;99.90;;;;;;4972682;28;20296;-63
2022/06/20 10:34:51;;;;;;;5.27;4.77;;;16.20;99.90;;;;;;4970352;28;20413;-63
2022/06/20 10:37:46;;;;;;;5.90;5.33;;;16.30;99.90;;;;;;4960412;28;20204;-63
2022/06/20 10:40:24;;;;;;;7.40;5.00;;;16.30;99.90;;;;;;4969730;28;20225;-63
2022/06/20 10:43:06;;;;;;;7.10;5.73;;;16.30;99.90;;;;;;4952731;28;20215;-63
2022/06/20 10:45:40;;;;;;;7.03;5.30;;;16.20;99.90;;;;;;4961701;28;20212;-63
2022/06/20 10:48:35;;;;;;;8.63;5.57;;;16.00;99.90;;;;;;4956704;28;20224;-62
2022/06/20 10:51:23;;;;;;;8.80;5.73;;;15.90;99.90;;;;;;4971613;28;20197;-62
2022/06/20 10:54:14;;;;;;;7.80;6.03;;;15.70;99.90;;;;;;4956206;28;20269;-63
2022/06/20 10:56:52;;;;;;;10.53;5.50;;;15.60;99.90;;;;;;4971618;28;20201;-63
2022/06/20 10:59:36;;;;;;;6.77;6.17;;;15.60;99.90;;;;;;4960103;28;20233;-63
2022/06/20 11:02:20;;;;;;;6.93;4.90;;;15.60;99.90;;;;;;4958587;28;20229;-64
2022/06/20 11:05:21;;;;;;;7.37;5.77;;;15.50;99.90;;;;;;4971516;28;20225;-63
2022/06/20 11:08:36;;;;;;;6.03;5.40;;;15.50;99.90;;;;;;4971609;28;20216;-63
2022/06/20 11:11:45;;;;;;;5.70;5.20;;;15.60;99.90;;;;;;4952846;28;20213;-63
2022/06/20 11:14:27;;;;;;;8.83;5.20;;;15.70;99.90;;;;;;4941807;28;20288;-63
2022/06/20 11:17:22;;;;;;;5.30;4.80;;;15.70;99.90;;;;;;4959405;28;20195;-64
2022/06/20 11:19:57;;;;;;;6.90;4.70;;;15.80;99.90;;;;;;4959711;28;20296;-63
2022/06/20 11:22:41;;;;;;;5.27;4.67;;;15.90;99.90;;;;;;4952925;28;20191;-62
2022/06/20 11:25:34;;;;;;;9.90;4.20;;;16.00;99.90;;;;;;4966992;28;20764;-64
2022/06/20 11:28:39;;;;;;;4.90;4.40;;;16.00;99.90;;;;;;4969308;28;20257;-62
2022/06/20 11:31:37;;;;;;;5.77;3.63;;;16.10;99.90;;;;;;4970342;28;20177;-63
2022/06/20 11:34:29;;;;;;;4.40;3.50;;;16.10;99.90;;;;;;4968847;28;20726;-62
2022/06/20 11:37:10;;;;;;;6.50;3.83;;;16.20;99.90;;;;;;4954793;28;20193;-64
2022/06/20 11:40:06;;;;;;;4.33;3.13;;;16.30;99.90;;;;;;4968460;28;20293;-64
2022/06/20 11:42:50;;;;;;;3.60;3.30;;;16.30;99.90;;;;;;4958775;28;20202;-64
2022/06/20 11:45:42;;;;;;;7.57;3.87;;;16.30;99.90;;;;;;4952413;28;20263;-70
2022/06/20 11:48:46;;;;;;;2.90;2.50;;;16.30;99.90;;;;;;4966261;28;20221;-65
2022/06/20 11:51:22;;;;;;;3.67;2.90;;;16.30;99.90;;;;;;4959411;28;20224;-66
2022/06/20 11:53:57;;;;;;;3.63;3.23;;;16.20;99.90;;;;;;4968336;28;20200;-66
2022/06/20 11:56:48;;;;;;;2.00;1.90;;;16.10;99.90;;;;;;4963461;28;20502;-65
2022/06/20 11:59:13;;;;;;;4.93;2.27;;;16.00;99.90;;;;;;4967559;28;20312;-65
2022/06/20 12:01:55;;;;;;;2.10;1.60;;;15.90;99.90;;;;;;4967829;28;20260;-64
2022/06/20 12:04:36;;;;;;;1.87;1.77;;;16.00;99.90;;;;;;4974801;28;20183;-63
2022/06/20 12:07:17;;;;;;;2.70;2.27;;;16.00;99.90;;;;;;4968596;28;20229;-62
2022/06/20 12:09:50;;;;;;;2.17;2.00;;;16.10;99.90;;;;;;4951693;28;20198;-65
2022/06/20 12:12:19;;;;;;;2.17;1.97;;;16.30;99.90;;;;;;4955998;28;20407;-65
2022/06/20 12:15:03;;;;;;;1.90;1.80;;;16.50;99.90;;;;;;4967771;28;20313;-68
2022/06/20 12:17:48;;;;;;;2.53;2.33;;;16.50;99.90;;;;;;4958194;28;20203;-67
2022/06/20 12:23:24;;;;;;;2.17;1.97;;;16.20;99.90;;;;;;4963813;28;20740;-67
2022/06/20 12:26:13;;;;;;;1.87;1.77;;;16.20;99.90;;;;;;4947937;29;20649;-65
2022/06/20 12:28:42;;;;;;;3.53;2.50;;;16.30;99.90;;;;;;4968091;28;20229;-66
2022/06/20 12:31:07;;;;;;;2.70;2.50;;;16.30;99.90;;;;;;4956879;28;20198;-66
2022/06/20 12:33:35;;;;;;;4.43;2.27;;;16.20;99.90;;;;;;4967131;28;20196;-66
2022/06/20 12:36:18;;;;;;;1.90;1.80;;;16.00;99.90;;;;;;4967172;28;20205;-65
2022/06/20 12:39:02;;;;;;;2.30;2.17;;;16.00;99.90;;;;;;4967407;28;20304;-65
2022/06/20 12:41:33;;;;;;;1.97;1.87;;;16.20;99.90;;;;;;4963270;28;20202;-66
2022/06/20 12:44:50;;;;;;;4.23;2.63;;;16.40;99.90;;;;;;4967469;28;20300;-66
2022/06/20 12:47:47;;;;;;;2.03;1.80;;;16.60;99.90;;;;;;4939371;28;20206;-65
2022/06/20 12:50:24;;;;;;;2.30;1.70;;;16.70;99.90;;;;;;4958561;28;20593;-66
2022/06/20 12:53:21;;;;;;;1.80;1.70;;;16.50;99.90;;;;;;4964912;28;20212;-65
2022/06/20 12:56:04;;;;;;;1.90;1.80;;;16.40;99.90;;;;;;4953250;28;20656;-65
2022/06/20 12:58:41;;;;;;;1.70;1.60;;;16.40;99.90;;;;;;4964941;28;20269;-65
2022/06/20 13:01:16;;;;;;;4.63;1.70;;;16.40;99.90;;;;;;4948929;28;20229;-63
2022/06/20 13:04:23;;;;;;;5.03;2.57;;;16.30;99.90;;;;;;4954258;28;20187;-64
2022/06/20 13:07:27;;;;;;;1.80;1.40;;;16.30;99.90;;;;;;4964638;28;20588;-65
2022/06/20 13:10:44;;;;;;;2.30;1.77;;;16.50;99.90;;;;;;4965414;28;20198;-65
2022/06/20 13:13:37;;;;;;;1.50;1.40;;;16.60;99.90;;;;;;4923902;29;20509;-65
2022/06/20 13:16:16;;;;;;;1.70;1.60;;;16.40;99.90;;;;;;4962533;28;20656;-74
2022/06/20 13:19:00;;;;;;;3.57;1.53;;;16.30;99.90;;;;;;4962697;28;21015;-65
2022/06/20 13:21:47;;;;;;;5.17;1.50;;;16.40;99.90;;;;;;4958169;28;20591;-66
2022/06/20 13:24:28;;;;;;;2.13;1.20;;;16.30;99.90;;;;;;4962286;28;20306;-66
2022/06/20 13:27:05;;;;;;;4.80;1.50;;;16.20;99.90;;;;;;4958459;28;20201;-66
2022/06/20 13:29:47;;;;;;;1.30;1.27;;;16.00;99.90;;;;;;4966526;28;20192;-65
2022/06/20 13:32:17;;;;;;;1.60;1.50;;;16.10;99.90;;;;;;4963761;28;20710;-65
2022/06/20 13:35:09;;;;;;;1.90;1.37;;;16.20;99.90;;;;;;4962637;28;20292;-65
2022/06/20 13:37:56;;;;;;;2.00;1.83;;;16.50;99.90;;;;;;4960546;28;20205;-66
2022/06/20 13:40:41;;;;;;;1.33;1.23;;;17.00;99.90;;;;;;4961476;28;20531;-66
2022/06/20 13:43:35;;;;;;;4.30;2.97;;;16.90;99.90;;;;;;4966339;28;20186;-65
2022/06/20 13:46:22;;;;;;;2.73;2.20;;;16.80;99.90;;;;;;4951365;28;20209;-65
2022/06/20 13:48:59;;;;;;;2.23;2.00;;;16.50;99.90;;;;;;4965298;28;20686;-65
2022/06/20 13:51:50;;;;;;;2.10;2.00;;;16.80;99.90;;;;;;4960835;28;20201;-65